createdAt,value
2022-08-05T00:00:46.352Z,984.43
2022-08-05T00:01:48.479Z,984.43
2022-08-05T00:02:39.652Z,984.42
2022-08-05T00:03:38.548Z,984.41
2022-08-05T00:04:40.276Z,984.41
2022-08-05T00:06:04.637Z,984.43
2022-08-05T00:06:39.543Z,984.44
2022-08-05T00:08:00.397Z,984.46
2022-08-05T00:08:39.493Z,984.47
2022-08-05T00:09:38.485Z,984.49
2022-08-05T00:10:39.486Z,984.49
2022-08-05T00:11:49.244Z,984.50
2022-08-05T00:12:55.866Z,984.49
2022-08-05T00:13:40.128Z,984.49
2022-08-05T00:14:38.476Z,984.48
2022-08-05T00:15:56.050Z,984.48
2022-08-05T00:16:52.622Z,984.47
2022-08-05T00:17:39.427Z,984.45
2022-08-05T00:18:38.437Z,984.42
2022-08-05T00:19:44.153Z,984.39
2022-08-05T00:20:39.397Z,984.36
2022-08-05T00:21:38.382Z,984.34
2022-08-05T00:22:38.379Z,984.34
2022-08-05T00:23:46.267Z,984.33
2022-08-05T00:24:42.473Z,984.31
2022-08-05T00:25:45.678Z,984.31
2022-08-05T00:26:39.350Z,984.30
2022-08-05T00:27:39.612Z,984.30
2022-08-05T00:28:38.336Z,984.30
2022-08-05T00:29:38.529Z,984.29
2022-08-05T00:30:38.321Z,984.29
2022-08-05T00:31:54.035Z,984.29
2022-08-05T00:32:39.319Z,984.30
2022-08-05T00:34:56.488Z,984.31
2022-08-05T00:34:56.993Z,984.34
2022-08-05T00:36:15.208Z,984.37
2022-08-05T00:37:10.544Z,984.41
2022-08-05T00:37:52.860Z,984.45
2022-08-05T00:38:39.260Z,984.49
2022-08-05T00:39:44.461Z,984.51
2022-08-05T00:40:39.246Z,984.53
2022-08-05T00:41:51.421Z,984.57
2022-08-05T00:42:39.207Z,984.62
2022-08-05T00:43:47.101Z,984.67
2022-08-05T00:44:39.195Z,984.68
2022-08-05T00:45:43.838Z,984.68
2022-08-05T00:46:43.561Z,984.67
2022-08-05T00:47:57.169Z,984.68
2022-08-05T00:48:50.476Z,984.70
2022-08-05T00:49:51.066Z,984.70
2022-08-05T00:50:39.192Z,984.69
2022-08-05T00:51:51.540Z,984.72
2022-08-05T00:52:39.224Z,984.70
2022-08-05T00:54:01.026Z,984.70
2022-08-05T00:54:39.126Z,984.68
2022-08-05T00:55:42.763Z,984.68
2022-08-05T00:56:39.113Z,984.69
2022-08-05T00:57:58.127Z,984.67
2022-08-05T00:58:39.085Z,984.65
2022-08-05T00:59:44.529Z,984.63
2022-08-05T01:00:39.107Z,984.62
2022-08-05T01:01:42.815Z,984.62
2022-08-05T01:02:39.074Z,984.58
2022-08-05T01:03:38.034Z,984.59
2022-08-05T01:04:38.038Z,984.60
2022-08-05T01:05:38.025Z,984.60
2022-08-05T01:06:38.038Z,984.54
2022-08-05T01:07:37.994Z,984.54
2022-08-05T01:08:43.366Z,984.52
2022-08-05T01:09:38.993Z,984.49
2022-08-05T01:10:37.980Z,984.50
2022-08-05T01:11:37.956Z,984.50
2022-08-05T01:12:37.964Z,984.50
2022-08-05T01:13:58.715Z,984.50
2022-08-05T01:14:38.934Z,984.54
2022-08-05T01:15:37.943Z,984.55
2022-08-05T01:16:38.931Z,984.57
2022-08-05T01:17:40.278Z,984.60
2022-08-05T01:18:38.908Z,984.62
2022-08-05T01:20:02.340Z,984.65
2022-08-05T01:20:38.909Z,984.70
2022-08-05T01:21:38.570Z,984.74
2022-08-05T01:22:37.882Z,984.77
2022-08-05T01:23:37.865Z,984.79
2022-08-05T01:24:37.880Z,984.80
2022-08-05T01:25:40.478Z,984.78
2022-08-05T01:26:38.107Z,984.75
2022-08-05T01:27:50.619Z,984.75
2022-08-05T01:28:39.537Z,984.74
2022-08-05T01:29:37.829Z,984.72
2022-08-05T01:30:38.837Z,984.71
2022-08-05T01:31:42.699Z,984.68
2022-08-05T01:32:38.842Z,984.67
2022-08-05T01:33:37.812Z,984.68
2022-08-05T01:34:37.796Z,984.66
2022-08-05T01:35:50.837Z,984.71
2022-08-05T01:36:42.129Z,984.72
2022-08-05T01:37:44.320Z,984.78
2022-08-05T01:38:38.751Z,984.86
2022-08-05T01:39:47.311Z,985.00
2022-08-05T01:40:38.734Z,985.18
2022-08-05T01:41:37.740Z,985.41
2022-08-05T01:42:37.718Z,985.66
2022-08-05T01:43:37.709Z,985.92
2022-08-05T01:44:37.693Z,986.13
2022-08-05T01:45:42.800Z,986.30
2022-08-05T01:46:42.579Z,986.30
2022-08-05T01:47:43.142Z,986.31
2022-08-05T01:48:37.653Z,986.33
2022-08-05T01:50:00.398Z,986.33
2022-08-05T01:50:38.635Z,986.24
2022-08-05T01:51:37.641Z,986.17
2022-08-05T01:52:37.647Z,986.20
2022-08-05T01:53:57.534Z,986.24
2022-08-05T01:54:45.888Z,986.37
2022-08-05T01:55:38.676Z,986.41
2022-08-05T01:58:09.943Z,986.46
2022-08-05T01:58:12.153Z,986.47
2022-08-05T01:58:44.699Z,986.45
2022-08-05T01:59:38.569Z,986.34
2022-08-05T02:00:37.562Z,986.36
2022-08-05T02:01:40.222Z,986.24
2022-08-05T02:02:37.773Z,986.20
2022-08-05T02:03:38.553Z,986.14
2022-08-05T02:04:37.590Z,986.13
2022-08-05T02:05:37.511Z,986.08
2022-08-05T02:06:39.071Z,986.05
2022-08-05T02:07:37.490Z,986.09
2022-08-05T02:08:40.956Z,986.12
2022-08-05T02:09:38.503Z,986.15
2022-08-05T02:10:37.475Z,986.16
2022-08-05T02:11:37.493Z,986.14
2022-08-05T02:12:37.458Z,986.27
2022-08-05T02:13:53.383Z,986.38
2022-08-05T02:14:38.452Z,986.53
2022-08-05T02:15:37.489Z,986.71
2022-08-05T02:16:37.450Z,986.95
2022-08-05T02:18:30.820Z,987.09
2022-08-05T02:18:41.941Z,987.23
2022-08-05T02:19:46.900Z,987.37
2022-08-05T02:20:38.932Z,987.53
2022-08-05T02:21:40.331Z,987.60
2022-08-05T02:22:38.398Z,987.62
2022-08-05T02:23:37.366Z,987.56
2022-08-05T02:24:37.371Z,987.50
2022-08-05T02:25:49.184Z,987.38
2022-08-05T02:26:38.341Z,987.38
2022-08-05T02:27:59.810Z,987.32
2022-08-05T02:28:41.641Z,987.18
2022-08-05T02:29:59.782Z,986.99
2022-08-05T02:30:38.306Z,986.87
2022-08-05T02:31:38.301Z,986.87
2022-08-05T02:32:37.291Z,986.82
2022-08-05T02:33:38.285Z,986.81
2022-08-05T02:34:37.329Z,986.80
2022-08-05T02:35:38.120Z,986.83
2022-08-05T02:36:38.251Z,986.79
2022-08-05T02:37:37.236Z,986.70
2022-08-05T02:38:37.256Z,986.59
2022-08-05T02:39:37.274Z,986.41
2022-08-05T02:40:37.834Z,986.22
2022-08-05T02:41:57.908Z,986.12
2022-08-05T02:42:38.202Z,986.01
2022-08-05T02:43:37.195Z,985.90
2022-08-05T02:44:38.203Z,985.80
2022-08-05T02:45:51.968Z,985.68
2022-08-05T02:46:53.850Z,985.56
2022-08-05T02:48:06.670Z,985.46
2022-08-05T02:48:38.144Z,985.40
2022-08-05T02:49:37.926Z,985.41
2022-08-05T02:50:37.147Z,985.47
2022-08-05T02:52:03.206Z,985.51
2022-08-05T02:52:38.166Z,985.51
2022-08-05T02:53:39.281Z,985.52
2022-08-05T02:54:37.499Z,985.49
2022-08-05T02:55:54.065Z,985.38
2022-08-05T02:56:38.124Z,985.14
2022-08-05T02:58:12.049Z,984.90
2022-08-05T02:58:38.058Z,984.74
2022-08-05T02:59:50.322Z,984.62
2022-08-05T03:00:38.046Z,984.49
2022-08-05T03:01:37.083Z,984.41
2022-08-05T03:02:37.025Z,984.37
2022-08-05T03:04:02.222Z,984.32
2022-08-05T03:04:38.010Z,984.34
2022-08-05T03:06:54.113Z,984.45
2022-08-05T03:06:56.736Z,984.57
2022-08-05T03:08:00.316Z,984.67
2022-08-05T03:08:38.012Z,984.72
2022-08-05T03:09:38.112Z,984.74
2022-08-05T03:10:36.993Z,984.73
2022-08-05T03:11:54.469Z,984.70
2022-08-05T03:12:37.963Z,984.68
2022-08-05T03:13:52.252Z,984.64
2022-08-05T03:14:45.749Z,984.59
2022-08-05T03:15:37.928Z,984.58
2022-08-05T03:16:36.934Z,984.58
2022-08-05T03:17:41.508Z,984.53
2022-08-05T03:18:37.925Z,984.51
2022-08-05T03:19:36.900Z,984.50
2022-08-05T03:20:36.880Z,984.48
2022-08-05T03:21:41.506Z,984.47
2022-08-05T03:22:37.939Z,984.44
2022-08-05T03:23:37.868Z,984.42
2022-08-05T03:24:36.868Z,984.35
2022-08-05T03:26:04.683Z,984.32
2022-08-05T03:26:37.845Z,984.27
2022-08-05T03:27:39.541Z,984.22
2022-08-05T03:28:37.845Z,984.10
2022-08-05T03:29:46.002Z,983.96
2022-08-05T03:30:38.207Z,983.88
2022-08-05T03:31:56.652Z,983.89
2022-08-05T03:32:37.792Z,983.93
2022-08-05T03:33:50.853Z,983.98
2022-08-05T03:34:37.814Z,984.01
2022-08-05T03:35:40.885Z,984.01
2022-08-05T03:36:37.764Z,984.00
2022-08-05T03:37:44.763Z,983.98
2022-08-05T03:38:37.733Z,983.95
2022-08-05T03:39:58.496Z,983.89
2022-08-05T03:40:37.747Z,983.85
2022-08-05T03:41:38.820Z,983.81
2022-08-05T03:42:51.505Z,983.78
2022-08-05T03:44:08.239Z,983.75
2022-08-05T03:44:37.710Z,983.73
2022-08-05T03:45:57.645Z,983.72
2022-08-05T03:46:37.672Z,983.74
2022-08-05T03:47:41.353Z,983.80
2022-08-05T03:48:37.659Z,983.83
2022-08-05T03:49:51.328Z,983.88
2022-08-05T03:50:37.681Z,983.93
2022-08-05T03:52:38.007Z,983.97
2022-08-05T03:55:00.377Z,984.00
2022-08-05T03:55:07.215Z,984.17
2022-08-05T03:55:52.517Z,984.07
2022-08-05T03:56:05.238Z,984.28
2022-08-05T03:56:37.609Z,984.39
2022-08-05T03:57:42.458Z,984.45
2022-08-05T03:58:37.574Z,984.50
2022-08-05T03:59:46.801Z,984.56
2022-08-05T04:00:37.555Z,984.59
2022-08-05T04:01:36.647Z,984.64
2022-08-05T04:02:38.327Z,984.69
2022-08-05T04:03:38.148Z,984.74
2022-08-05T04:04:36.528Z,984.81
2022-08-05T04:05:36.523Z,984.89
2022-08-05T04:06:36.512Z,985.00
2022-08-05T04:07:36.596Z,985.13
2022-08-05T04:08:37.527Z,985.24
2022-08-05T04:09:36.734Z,985.28
2022-08-05T04:10:38.325Z,985.22
2022-08-05T04:11:47.547Z,985.29
2022-08-05T04:13:24.535Z,985.57
2022-08-05T04:14:30.035Z,985.63
2022-08-05T04:15:25.541Z,985.71
2022-08-05T04:16:32.332Z,985.82
2022-08-05T04:17:25.942Z,985.89
2022-08-05T04:18:25.700Z,985.81
2022-08-05T04:19:24.517Z,985.67
2022-08-05T04:20:24.485Z,985.81
2022-08-05T04:22:05.037Z,985.99
2022-08-05T04:22:26.581Z,985.98
2022-08-05T04:24:00.217Z,985.91
2022-08-05T04:24:25.522Z,986.05
2022-08-05T04:25:57.651Z,986.20
2022-08-05T04:26:25.444Z,986.24
2022-08-05T04:27:41.653Z,986.16
2022-08-05T04:28:30.974Z,986.09
2022-08-05T04:29:27.197Z,986.24
2022-08-05T04:30:24.436Z,986.38
2022-08-05T04:31:27.632Z,986.39
2022-08-05T04:32:31.222Z,986.32
2022-08-05T04:34:17.903Z,986.17
2022-08-05T04:34:32.561Z,986.13
2022-08-05T04:35:25.388Z,986.31
2022-08-05T04:36:46.569Z,986.41
2022-08-05T04:38:01.348Z,986.38
2022-08-05T04:38:39.604Z,986.24
2022-08-05T04:39:25.381Z,986.13
2022-08-05T04:40:24.328Z,986.06
2022-08-05T04:41:36.610Z,986.06
2022-08-05T04:42:25.642Z,986.10
2022-08-05T04:43:24.302Z,986.14
2022-08-05T04:44:29.667Z,986.06
2022-08-05T04:45:47.694Z,985.99
2022-08-05T04:46:27.823Z,986.01
2022-08-05T04:47:24.581Z,986.02
2022-08-05T04:48:27.719Z,986.02
2022-08-05T04:49:24.685Z,986.09
2022-08-05T04:50:37.179Z,986.13
2022-08-05T04:51:25.244Z,986.11
2022-08-05T04:52:24.257Z,986.08
2022-08-05T04:53:24.246Z,986.01
2022-08-05T04:54:24.220Z,985.96
2022-08-05T04:56:05.091Z,985.98
2022-08-05T04:56:34.828Z,986.04
2022-08-05T04:57:25.383Z,986.04
2022-08-05T04:58:24.203Z,985.99
2022-08-05T04:59:38.464Z,985.97
2022-08-05T05:00:25.177Z,986.02
2022-08-05T05:01:33.465Z,986.09
2022-08-05T05:02:36.136Z,986.14
2022-08-05T05:03:25.150Z,986.20
2022-08-05T05:04:25.167Z,986.23
2022-08-05T05:05:28.682Z,986.23
2022-08-05T05:06:39.850Z,986.21
2022-08-05T05:07:29.465Z,986.20
2022-08-05T05:08:29.911Z,986.17
2022-08-05T05:09:25.092Z,986.17
2022-08-05T05:10:24.114Z,986.20
2022-08-05T05:11:24.093Z,986.24
2022-08-05T05:12:27.476Z,986.30
2022-08-05T05:13:24.076Z,986.34
2022-08-05T05:14:27.839Z,986.36
2022-08-05T05:15:56.421Z,986.34
2022-08-05T05:16:25.041Z,986.35
2022-08-05T05:17:56.193Z,986.39
2022-08-05T05:18:28.297Z,986.38
2022-08-05T05:19:27.259Z,986.31
2022-08-05T05:20:28.308Z,986.22
2022-08-05T05:21:24.045Z,986.15
2022-08-05T05:22:26.513Z,986.09
2022-08-05T05:23:23.993Z,986.09
2022-08-05T05:24:24.042Z,986.15
2022-08-05T05:25:40.358Z,986.24
2022-08-05T05:26:28.343Z,986.27
2022-08-05T05:27:25.195Z,986.27
2022-08-05T05:28:24.970Z,986.32
2022-08-05T05:29:23.948Z,986.41
2022-08-05T05:30:31.203Z,986.44
2022-08-05T05:31:25.153Z,986.44
2022-08-05T05:32:23.923Z,986.42
2022-08-05T05:33:24.056Z,986.36
2022-08-05T05:34:26.990Z,986.27
2022-08-05T05:35:23.881Z,986.18
2022-08-05T05:36:23.868Z,986.06
2022-08-05T05:37:24.165Z,985.91
2022-08-05T05:38:27.124Z,985.76
2022-08-05T05:39:23.884Z,985.66
2022-08-05T05:40:25.807Z,985.59
2022-08-05T05:41:23.880Z,985.55
2022-08-05T05:42:23.825Z,985.55
2022-08-05T05:43:54.301Z,985.58
2022-08-05T05:44:37.527Z,985.57
2022-08-05T05:45:24.911Z,985.56
2022-08-05T05:46:23.796Z,985.61
2022-08-05T05:47:30.614Z,985.66
2022-08-05T05:48:27.497Z,985.71
2022-08-05T05:49:23.770Z,985.82
2022-08-05T05:50:23.756Z,986.01
2022-08-05T05:51:23.761Z,986.17
2022-08-05T05:52:25.492Z,986.21
2022-08-05T05:53:24.730Z,986.21
2022-08-05T05:54:49.898Z,986.16
2022-08-05T05:55:24.739Z,986.05
2022-08-05T05:56:26.133Z,985.92
2022-08-05T05:57:24.936Z,985.77
2022-08-05T05:58:32.026Z,985.65
2022-08-05T05:59:24.696Z,985.54
2022-08-05T06:00:31.451Z,985.44
2022-08-05T06:01:24.673Z,985.43
2022-08-05T06:02:32.531Z,985.45
2022-08-05T06:03:40.652Z,985.45
2022-08-05T06:04:24.723Z,985.39
2022-08-05T06:05:23.676Z,985.33
2022-08-05T06:06:23.630Z,985.32
2022-08-05T06:07:23.817Z,985.39
2022-08-05T06:08:32.548Z,985.50
2022-08-05T06:09:49.146Z,985.63
2022-08-05T06:10:24.608Z,985.74
2022-08-05T06:11:23.593Z,985.82
2022-08-05T06:12:23.600Z,985.89
2022-08-05T06:13:23.624Z,985.97
2022-08-05T06:14:23.583Z,986.05
2022-08-05T06:15:24.416Z,986.12
2022-08-05T06:16:28.193Z,986.17
2022-08-05T06:17:31.041Z,986.19
2022-08-05T06:18:30.992Z,986.20
2022-08-05T06:19:26.144Z,986.24
2022-08-05T06:20:24.543Z,986.28
2022-08-05T06:21:23.506Z,986.33
2022-08-05T06:22:24.501Z,986.39
2022-08-05T06:23:23.500Z,986.43
2022-08-05T06:24:25.836Z,986.44
2022-08-05T06:25:25.028Z,986.47
2022-08-05T06:26:25.068Z,986.53
2022-08-05T06:28:12.092Z,986.58
2022-08-05T06:28:27.011Z,986.61
2022-08-05T06:29:42.965Z,986.64
2022-08-05T06:31:50.763Z,986.82
2022-08-05T06:32:50.949Z,986.86
2022-08-05T06:34:07.386Z,986.86
2022-08-05T06:34:53.613Z,986.83
2022-08-05T06:36:07.664Z,986.82
2022-08-05T06:36:57.601Z,986.84
2022-08-05T06:37:57.376Z,986.83
2022-08-05T06:38:51.529Z,986.79
2022-08-05T06:39:50.522Z,986.74
2022-08-05T06:40:50.531Z,986.67
2022-08-05T06:41:50.510Z,986.63
2022-08-05T06:42:52.029Z,986.63
2022-08-05T06:43:57.603Z,986.62
2022-08-05T06:44:51.476Z,986.59
2022-08-05T06:46:06.999Z,986.52
2022-08-05T06:46:51.467Z,986.50
2022-08-05T06:48:36.410Z,986.46
2022-08-05T06:48:59.011Z,986.38
2022-08-05T06:50:00.146Z,986.24
2022-08-05T06:50:51.469Z,986.16
2022-08-05T06:51:50.481Z,986.11
2022-08-05T06:52:58.436Z,986.10
2022-08-05T06:53:53.614Z,986.07
2022-08-05T06:54:52.088Z,985.98
2022-08-05T06:55:50.403Z,985.88
2022-08-05T06:56:55.092Z,985.81
2022-08-05T06:58:02.662Z,985.79
2022-08-05T06:58:51.369Z,985.79
2022-08-05T06:59:55.046Z,985.78
2022-08-05T07:00:51.403Z,985.78
2022-08-05T07:01:53.003Z,985.79
2022-08-05T07:02:53.741Z,985.81
2022-08-05T07:03:50.372Z,985.81
2022-08-05T07:04:50.337Z,985.78
2022-08-05T07:05:50.488Z,985.76
2022-08-05T07:06:50.601Z,985.79
2022-08-05T07:07:50.322Z,985.78
2022-08-05T07:08:51.926Z,985.79
2022-08-05T07:09:55.689Z,985.81
2022-08-05T07:10:53.177Z,985.84
2022-08-05T07:11:51.754Z,985.85
2022-08-05T07:12:50.462Z,985.89
2022-08-05T07:13:57.647Z,985.95
2022-08-05T07:14:54.010Z,986.03
2022-08-05T07:16:00.801Z,986.08
2022-08-05T07:17:57.181Z,986.10
2022-08-05T07:18:00.539Z,986.14
2022-08-05T07:18:51.222Z,986.13
2022-08-05T07:20:32.085Z,986.10
2022-08-05T07:20:51.188Z,986.04
2022-08-05T07:22:00.975Z,985.98
2022-08-05T07:22:51.267Z,985.95
2022-08-05T07:23:52.287Z,985.91
2022-08-05T07:24:53.582Z,985.92
2022-08-05T07:25:56.288Z,985.95
2022-08-05T07:26:51.351Z,985.99
2022-08-05T07:27:58.017Z,986.00
2022-08-05T07:28:51.147Z,985.96
2022-08-05T07:30:27.479Z,985.96
2022-08-05T07:30:54.740Z,985.94
2022-08-05T07:31:54.884Z,985.91
2022-08-05T07:32:53.525Z,985.88
2022-08-05T07:33:50.077Z,985.88
2022-08-05T07:34:50.121Z,985.89
2022-08-05T07:36:03.318Z,985.90
2022-08-05T07:36:51.217Z,985.88
2022-08-05T07:37:50.057Z,985.81
2022-08-05T07:38:54.792Z,985.77
2022-08-05T07:40:04.073Z,985.79
2022-08-05T07:40:55.655Z,985.86
2022-08-05T07:42:13.955Z,985.88
2022-08-05T07:42:51.009Z,985.86
2022-08-05T07:43:50.001Z,985.86
2022-08-05T07:44:49.995Z,985.91
2022-08-05T07:45:57.428Z,985.90
2022-08-05T07:46:50.965Z,985.88
2022-08-05T07:47:49.970Z,985.87
2022-08-05T07:49:02.857Z,985.89
2022-08-05T07:49:54.611Z,985.93
2022-08-05T07:50:49.942Z,985.97
2022-08-05T07:51:53.560Z,985.98
2022-08-05T07:52:49.913Z,985.97
2022-08-05T07:53:51.729Z,985.95
2022-08-05T07:54:49.974Z,985.93
2022-08-05T07:56:05.518Z,985.89
2022-08-05T07:57:12.889Z,985.88
2022-08-05T07:58:02.149Z,985.95
2022-08-05T07:58:55.059Z,986.01
2022-08-05T07:59:50.912Z,986.09
2022-08-05T08:00:49.887Z,986.16
2022-08-05T08:01:52.342Z,986.21
2022-08-05T08:03:13.945Z,986.24
2022-08-05T08:03:51.325Z,986.22
2022-08-05T08:04:49.938Z,986.17
2022-08-05T08:05:50.051Z,986.20
2022-08-05T08:06:49.948Z,986.25
2022-08-05T08:07:59.458Z,986.29
2022-08-05T08:08:50.777Z,986.33
2022-08-05T08:09:49.776Z,986.36
2022-08-05T08:10:49.760Z,986.35
2022-08-05T08:11:58.937Z,986.35
2022-08-05T08:12:50.774Z,986.34
2022-08-05T08:14:00.768Z,986.31
2022-08-05T08:14:50.728Z,986.30
2022-08-05T08:16:35.143Z,986.29
2022-08-05T08:16:53.364Z,986.26
2022-08-05T08:17:52.653Z,986.21
2022-08-05T08:18:49.937Z,986.19
2022-08-05T08:20:10.331Z,986.19
2022-08-05T08:21:02.070Z,986.18
2022-08-05T08:21:50.733Z,986.16
2022-08-05T08:22:49.654Z,986.20
2022-08-05T08:24:00.968Z,986.28
2022-08-05T08:24:51.961Z,986.37
2022-08-05T08:25:59.928Z,986.46
2022-08-05T08:26:50.632Z,986.51
2022-08-05T08:27:51.150Z,986.50
2022-08-05T08:28:49.731Z,986.49
2022-08-05T08:30:05.222Z,986.50
2022-08-05T08:30:50.657Z,986.53
2022-08-05T08:31:49.598Z,986.57
2022-08-05T08:32:49.622Z,986.61
2022-08-05T08:33:51.677Z,986.63
2022-08-05T08:34:49.590Z,986.63
2022-08-05T08:35:53.011Z,986.58
2022-08-05T08:36:55.831Z,986.53
2022-08-05T08:37:53.490Z,986.53
2022-08-05T08:38:53.448Z,986.57
2022-08-05T08:39:49.883Z,986.64
2022-08-05T08:40:51.793Z,986.71
2022-08-05T08:41:52.479Z,986.75
2022-08-05T08:42:52.737Z,986.77
2022-08-05T08:45:19.143Z,986.76
2022-08-05T08:45:24.311Z,986.73
2022-08-05T08:45:50.476Z,986.73
2022-08-05T08:46:49.463Z,986.74
2022-08-05T08:48:10.478Z,986.74
2022-08-05T08:49:07.982Z,986.75
2022-08-05T08:50:23.110Z,986.75
2022-08-05T08:51:03.901Z,986.81
2022-08-05T08:52:03.797Z,986.85
2022-08-05T08:52:51.775Z,986.80
2022-08-05T08:53:49.443Z,986.80
2022-08-05T08:54:49.590Z,986.77
2022-08-05T08:56:04.621Z,986.73
2022-08-05T08:56:50.406Z,986.69
2022-08-05T08:57:58.271Z,986.67
2022-08-05T08:58:50.627Z,986.68
2022-08-05T08:59:49.379Z,986.73
2022-08-05T09:00:49.406Z,986.71
2022-08-05T09:01:57.275Z,986.69
2022-08-05T09:02:50.381Z,986.70
2022-08-05T09:03:55.459Z,986.68
2022-08-05T09:05:15.911Z,986.69
2022-08-05T09:06:09.149Z,986.68
2022-08-05T09:06:50.326Z,986.68
2022-08-05T09:07:58.087Z,986.70
2022-08-05T09:08:50.291Z,986.67
2022-08-05T09:09:49.281Z,986.70
2022-08-05T09:10:49.282Z,986.72
2022-08-05T09:11:51.612Z,986.72
2022-08-05T09:12:51.033Z,986.69
2022-08-05T09:14:00.846Z,986.70
2022-08-05T09:14:57.765Z,986.72
2022-08-05T09:15:50.251Z,986.75
2022-08-05T09:16:49.270Z,986.77
2022-08-05T09:17:49.444Z,986.78
2022-08-05T09:18:49.234Z,986.79
2022-08-05T09:19:55.428Z,986.76
2022-08-05T09:20:50.212Z,986.76
2022-08-05T09:22:21.746Z,986.75
2022-08-05T09:22:51.837Z,986.73
2022-08-05T09:23:49.159Z,986.71
2022-08-05T09:24:49.155Z,986.71
2022-08-05T09:26:03.274Z,986.71
2022-08-05T09:26:51.890Z,986.68
2022-08-05T09:28:04.744Z,986.68
2022-08-05T09:28:50.129Z,986.64
2022-08-05T09:29:49.109Z,986.61
2022-08-05T09:30:49.356Z,986.59
2022-08-05T09:32:41.297Z,986.55
2022-08-05T09:32:50.219Z,986.50
2022-08-05T09:33:49.086Z,986.50
2022-08-05T09:34:49.123Z,986.50
2022-08-05T09:35:49.077Z,986.46
2022-08-05T09:36:56.132Z,986.46
2022-08-05T09:38:17.046Z,986.46
2022-08-05T09:38:50.076Z,986.43
2022-08-05T09:39:52.309Z,986.42
2022-08-05T09:40:53.763Z,986.39
2022-08-05T09:41:56.165Z,986.40
2022-08-05T09:42:49.994Z,986.43
2022-08-05T09:43:49.445Z,986.45
2022-08-05T09:44:50.427Z,986.43
2022-08-05T09:46:06.568Z,986.46
2022-08-05T09:46:53.558Z,986.45
2022-08-05T09:47:55.909Z,986.45
2022-08-05T09:49:06.634Z,986.46
2022-08-05T09:50:01.151Z,986.46
2022-08-05T09:50:49.970Z,986.48
2022-08-05T09:51:50.189Z,986.50
2022-08-05T09:52:52.959Z,986.52
2022-08-05T09:53:54.669Z,986.52
2022-08-05T09:54:49.921Z,986.50
2022-08-05T09:55:57.087Z,986.50
2022-08-05T09:56:51.853Z,986.49
2022-08-05T09:57:48.924Z,986.45
2022-08-05T09:58:50.359Z,986.47
2022-08-05T09:59:48.935Z,986.51
2022-08-05T10:00:48.862Z,986.48
2022-08-05T10:01:48.868Z,986.48
2022-08-05T10:02:49.894Z,986.52
2022-08-05T10:03:59.194Z,986.48
2022-08-05T10:04:49.829Z,986.51
2022-08-05T10:05:48.815Z,986.48
2022-08-05T10:06:49.825Z,986.53
2022-08-05T10:08:10.680Z,986.53
2022-08-05T10:08:53.796Z,986.54
2022-08-05T10:09:48.792Z,986.53
2022-08-05T10:10:53.878Z,986.51
2022-08-05T10:11:48.878Z,986.50
2022-08-05T10:12:49.856Z,986.48
2022-08-05T10:13:49.184Z,986.44
2022-08-05T10:14:48.743Z,986.49
2022-08-05T10:15:48.743Z,986.47
2022-08-05T10:16:53.015Z,986.45
2022-08-05T10:17:56.866Z,986.48
2022-08-05T10:18:49.738Z,986.50
2022-08-05T10:20:03.116Z,986.48
2022-08-05T10:20:49.702Z,986.52
2022-08-05T10:21:48.686Z,986.52
2022-08-05T10:22:51.074Z,986.54
2022-08-05T10:23:59.946Z,986.52
2022-08-05T10:24:49.666Z,986.59
2022-08-05T10:25:48.684Z,986.62
2022-08-05T10:26:51.232Z,986.61
2022-08-05T10:28:13.381Z,986.61
2022-08-05T10:28:49.709Z,986.56
2022-08-05T10:30:41.297Z,986.57
2022-08-05T10:32:49.511Z,986.52
2022-08-05T10:32:54.150Z,986.56
2022-08-05T10:33:00.678Z,986.51
2022-08-05T10:33:54.300Z,986.47
2022-08-05T10:34:49.620Z,986.47
2022-08-05T10:35:59.934Z,986.46
2022-08-05T10:36:49.574Z,986.43
2022-08-05T10:37:48.561Z,986.44
2022-08-05T10:38:48.584Z,986.43
2022-08-05T10:40:03.063Z,986.38
2022-08-05T10:40:49.618Z,986.35
2022-08-05T10:41:49.063Z,986.33
2022-08-05T10:42:48.576Z,986.29
2022-08-05T10:43:48.648Z,986.29
2022-08-05T10:44:48.497Z,986.28
2022-08-05T10:45:48.498Z,986.25
2022-08-05T10:46:50.950Z,986.24
2022-08-05T10:48:29.888Z,986.25
2022-08-05T10:48:57.085Z,986.26
2022-08-05T10:50:32.065Z,986.23
2022-08-05T10:50:49.479Z,986.25
2022-08-05T10:51:58.273Z,986.25
2022-08-05T10:52:49.947Z,986.30
2022-08-05T10:53:48.432Z,986.31
2022-08-05T10:54:56.053Z,986.32
2022-08-05T10:56:05.150Z,986.33
2022-08-05T10:56:49.596Z,986.35
2022-08-05T10:57:51.339Z,986.35
2022-08-05T10:58:49.592Z,986.37
2022-08-05T11:00:02.127Z,986.39
2022-08-05T11:00:55.465Z,986.40
2022-08-05T11:02:03.842Z,986.44
2022-08-05T11:02:50.665Z,986.45
2022-08-05T11:03:48.451Z,986.45
2022-08-05T11:04:48.408Z,986.47
2022-08-05T11:05:48.378Z,986.49
2022-08-05T11:06:48.350Z,986.47
2022-08-05T11:08:01.761Z,986.49
2022-08-05T11:08:49.341Z,986.49
2022-08-05T11:09:48.325Z,986.47
2022-08-05T11:10:59.997Z,986.47
2022-08-05T11:11:53.378Z,986.50
2022-08-05T11:12:54.160Z,986.50
2022-08-05T11:13:58.046Z,986.52
2022-08-05T11:15:11.426Z,986.54
2022-08-05T11:16:00.597Z,986.57
2022-08-05T11:16:57.738Z,986.60
2022-08-05T11:17:57.014Z,986.62
2022-08-05T11:18:49.242Z,986.62
2022-08-05T11:20:10.500Z,986.63
2022-08-05T11:20:49.340Z,986.64
2022-08-05T11:21:49.345Z,986.64
2022-08-05T11:22:50.004Z,986.62
2022-08-05T11:24:04.590Z,986.63
2022-08-05T11:24:50.774Z,986.61
2022-08-05T11:26:05.595Z,986.59
2022-08-05T11:26:49.662Z,986.55
2022-08-05T11:27:51.748Z,986.50
2022-08-05T11:28:49.170Z,986.50
2022-08-05T11:29:48.189Z,986.50
2022-08-05T11:30:48.166Z,986.54
2022-08-05T11:31:57.909Z,986.58
2022-08-05T11:32:49.160Z,986.61
2022-08-05T11:33:48.371Z,986.65
2022-08-05T11:34:53.958Z,986.67
2022-08-05T11:36:08.076Z,986.72
2022-08-05T11:36:52.902Z,986.72
2022-08-05T11:38:30.693Z,986.70
2022-08-05T11:38:51.040Z,986.70
2022-08-05T11:39:48.413Z,986.71
2022-08-05T11:40:48.074Z,986.72
2022-08-05T11:42:00.801Z,986.73
2022-08-05T11:42:49.163Z,986.73
2022-08-05T11:44:05.094Z,986.73
2022-08-05T11:44:54.013Z,986.72
2022-08-05T11:46:14.996Z,986.73
2022-08-05T11:47:09.218Z,986.73
2022-08-05T11:47:50.662Z,986.74
2022-08-05T11:48:49.019Z,986.76
2022-08-05T11:49:49.781Z,986.74
2022-08-05T11:50:47.981Z,986.77
2022-08-05T11:51:49.527Z,986.78
2022-08-05T11:52:48.799Z,986.79
2022-08-05T11:53:48.193Z,986.81
2022-08-05T11:54:48.493Z,986.83
2022-08-05T11:55:48.939Z,986.83
2022-08-05T11:56:50.328Z,986.82
2022-08-05T11:58:10.795Z,986.82
2022-08-05T11:58:53.142Z,986.85
2022-08-05T11:59:49.914Z,986.85
2022-08-05T12:00:47.914Z,986.85
2022-08-05T12:01:48.655Z,986.84
2022-08-05T12:02:48.014Z,986.85
2022-08-05T12:03:55.816Z,986.85
2022-08-05T12:04:59.051Z,986.88
2022-08-05T12:05:48.857Z,986.91
2022-08-05T12:06:48.949Z,986.95
2022-08-05T12:08:03.577Z,986.96
2022-08-05T12:08:50.861Z,987.01
2022-08-05T12:09:53.358Z,987.04
2022-08-05T12:10:48.900Z,987.07
2022-08-05T12:11:47.958Z,987.08
2022-08-05T12:12:59.445Z,987.06
2022-08-05T12:13:49.995Z,987.05
2022-08-05T12:14:47.803Z,987.08
2022-08-05T12:15:50.220Z,987.11
2022-08-05T12:16:47.798Z,987.10
2022-08-05T12:18:03.242Z,987.13
2022-08-05T12:18:52.996Z,987.14
2022-08-05T12:20:26.436Z,987.14
2022-08-05T12:20:48.741Z,987.15
2022-08-05T12:21:47.740Z,987.16
2022-08-05T12:22:47.771Z,987.17
2022-08-05T12:23:47.716Z,987.17
2022-08-05T12:24:49.637Z,987.16
2022-08-05T12:25:47.731Z,987.15
2022-08-05T12:26:47.730Z,987.14
2022-08-05T12:27:53.253Z,987.14
2022-08-05T12:28:48.722Z,987.16
2022-08-05T12:29:56.807Z,987.15
2022-08-05T12:30:48.677Z,987.14